createdAt,value
2023-03-29T00:00:38.705Z,41.0853
2023-03-29T00:01:40.139Z,41.1231
2023-03-29T00:02:53.386Z,41.1171
2023-03-29T00:03:43.066Z,41.0826
2023-03-29T00:04:44.436Z,41.1449
2023-03-29T00:05:45.945Z,41.1870
2023-03-29T00:06:47.284Z,41.1315
2023-03-29T00:07:48.729Z,41.1417
2023-03-29T00:08:50.167Z,41.1564
2023-03-29T00:09:51.563Z,41.1457
2023-03-29T00:10:52.998Z,41.1322
2023-03-29T00:11:54.422Z,41.1184
2023-03-29T00:12:55.848Z,41.2227
2023-03-29T00:13:57.298Z,41.3665
2023-03-29T00:14:58.722Z,41.3310
2023-03-29T00:16:00.145Z,41.3118
2023-03-29T00:17:01.613Z,41.3677
2023-03-29T00:18:02.999Z,41.3511
2023-03-29T00:19:04.443Z,41.3406
2023-03-29T00:20:05.854Z,41.2389
2023-03-29T00:21:07.302Z,41.3161
2023-03-29T00:22:08.741Z,41.2302
2023-03-29T00:23:10.171Z,41.2956
2023-03-29T00:24:11.560Z,41.3082
2023-03-29T00:25:13.074Z,41.4572
2023-03-29T00:26:14.489Z,41.4991
2023-03-29T00:27:15.889Z,41.3676
2023-03-29T00:28:17.336Z,41.2353
2023-03-29T00:29:18.801Z,41.1841
2023-03-29T00:30:20.159Z,41.1896
2023-03-29T00:31:21.646Z,41.4142
2023-03-29T00:32:23.051Z,41.6065
2023-03-29T00:33:24.475Z,41.6725
2023-03-29T00:34:25.899Z,41.6512
2023-03-29T00:35:27.360Z,41.6612
2023-03-29T00:36:28.771Z,41.6828
2023-03-29T00:37:30.217Z,41.7516
2023-03-29T00:38:31.773Z,41.8193
2023-03-29T00:39:33.032Z,41.7843
2023-03-29T00:40:34.466Z,41.7714
2023-03-29T00:41:35.914Z,41.7691
2023-03-29T00:42:37.363Z,41.7883
2023-03-29T00:43:38.749Z,41.7795
2023-03-29T00:44:40.171Z,41.7711
2023-03-29T00:45:41.588Z,41.7420
2023-03-29T00:46:43.117Z,41.7424
2023-03-29T00:47:44.542Z,41.7142
2023-03-29T00:48:45.922Z,41.6838
2023-03-29T00:49:47.300Z,41.7207
2023-03-29T00:50:48.772Z,41.6751
2023-03-29T00:51:50.177Z,41.6662
2023-03-29T00:52:51.602Z,41.6885
2023-03-29T00:53:53.032Z,41.7196
2023-03-29T00:54:54.457Z,41.7555
2023-03-29T00:55:55.886Z,41.7436
2023-03-29T00:56:57.430Z,41.7493
2023-03-29T00:57:58.742Z,41.7465
2023-03-29T00:59:00.172Z,41.8002
2023-03-29T01:00:01.609Z,41.7662
2023-03-29T01:01:03.316Z,41.7749
2023-03-29T01:02:04.503Z,41.7471
2023-03-29T01:03:05.961Z,41.7517
2023-03-29T01:04:07.312Z,41.7779
2023-03-29T01:05:08.719Z,41.7728
2023-03-29T01:06:10.126Z,41.7912
2023-03-29T01:07:11.632Z,41.7973
2023-03-29T01:08:12.992Z,41.7636
2023-03-29T01:09:14.428Z,41.7717
2023-03-29T01:10:15.844Z,41.7884
2023-03-29T01:11:17.524Z,41.7548
2023-03-29T01:12:18.704Z,41.7367
2023-03-29T01:13:20.110Z,41.7265
2023-03-29T01:14:21.542Z,41.7340
2023-03-29T01:15:23.020Z,41.7373
2023-03-29T01:16:24.420Z,41.7438
2023-03-29T01:17:25.919Z,41.7246
2023-03-29T01:18:27.269Z,41.6859
2023-03-29T01:19:28.726Z,41.7298
2023-03-29T01:20:30.133Z,41.7338
2023-03-29T01:21:31.610Z,41.7695
2023-03-29T01:22:33.008Z,41.7533
2023-03-29T01:23:34.431Z,41.7295
2023-03-29T01:24:35.865Z,41.7378
2023-03-29T01:25:37.293Z,41.7180
2023-03-29T01:26:38.722Z,41.6781
2023-03-29T01:27:40.160Z,41.6498
2023-03-29T01:28:41.547Z,41.6359
2023-03-29T01:29:42.992Z,41.6540
2023-03-29T01:30:44.423Z,41.6709
2023-03-29T01:31:45.976Z,41.6676
2023-03-29T01:32:47.293Z,41.7397
2023-03-29T01:33:48.738Z,41.7975
2023-03-29T01:34:50.098Z,41.7774
2023-03-29T01:35:51.589Z,41.7983
2023-03-29T01:36:52.951Z,41.7989
2023-03-29T01:37:54.450Z,41.8502
2023-03-29T01:38:55.817Z,41.8197
2023-03-29T01:39:57.254Z,41.8407
2023-03-29T01:40:58.663Z,41.8352
2023-03-29T01:42:00.102Z,41.8384
2023-03-29T01:43:01.560Z,41.8379
2023-03-29T01:44:03.011Z,41.8627
2023-03-29T01:45:04.384Z,41.8756
2023-03-29T01:46:05.830Z,41.8676
2023-03-29T01:47:07.270Z,41.8269
2023-03-29T01:48:08.691Z,41.8317
2023-03-29T01:49:10.087Z,41.7991
2023-03-29T01:50:11.550Z,41.8166
2023-03-29T01:51:12.947Z,41.7996
2023-03-29T01:52:14.391Z,41.7957
2023-03-29T01:53:15.824Z,41.8147
2023-03-29T01:54:17.244Z,41.8175
2023-03-29T01:55:18.659Z,41.7945
2023-03-29T01:56:20.101Z,41.7674
2023-03-29T01:57:21.536Z,41.7607
2023-03-29T01:58:22.946Z,41.7571
2023-03-29T01:59:24.341Z,41.7594
2023-03-29T02:00:25.796Z,41.7605
2023-03-29T02:01:27.248Z,41.7634
2023-03-29T02:02:28.754Z,41.7557
2023-03-29T02:03:30.140Z,41.7215
2023-03-29T02:04:31.492Z,41.7132
2023-03-29T02:05:32.922Z,41.7047
2023-03-29T02:06:34.445Z,41.6843
2023-03-29T02:07:35.761Z,41.6725
2023-03-29T02:08:37.229Z,41.6615
2023-03-29T02:09:38.630Z,41.6723
2023-03-29T02:10:40.080Z,41.6686
2023-03-29T02:11:41.466Z,41.6674
2023-03-29T02:12:42.929Z,41.6626
2023-03-29T02:13:44.441Z,41.6628
2023-03-29T02:14:45.867Z,41.6538
2023-03-29T02:15:47.386Z,41.6499
2023-03-29T02:16:48.702Z,41.6671
2023-03-29T02:17:50.174Z,41.6876
2023-03-29T02:18:51.543Z,41.6983
2023-03-29T02:19:52.984Z,41.7212
2023-03-29T02:20:54.398Z,41.7107
2023-03-29T02:21:55.813Z,41.6833
2023-03-29T02:22:57.278Z,41.7074
2023-03-29T02:23:58.676Z,41.7026
2023-03-29T02:25:00.132Z,41.6929
2023-03-29T02:26:01.521Z,41.6985
2023-03-29T02:27:02.949Z,41.6940
2023-03-29T02:28:04.384Z,41.7108
2023-03-29T02:29:05.806Z,41.7171
2023-03-29T02:30:07.238Z,41.7372
2023-03-29T02:31:08.687Z,41.7470
2023-03-29T02:32:10.073Z,41.7379
2023-03-29T02:33:11.625Z,41.7400
2023-03-29T02:34:12.977Z,41.7260
2023-03-29T02:35:14.339Z,41.6959
2023-03-29T02:36:15.779Z,41.6932
2023-03-29T02:37:17.193Z,41.6786
2023-03-29T02:38:18.660Z,41.6984
2023-03-29T02:39:20.049Z,41.7244
2023-03-29T02:40:21.490Z,41.6838
2023-03-29T02:41:22.893Z,41.6954
2023-03-29T02:42:24.318Z,41.7058
2023-03-29T02:43:26.139Z,41.6974
2023-03-29T02:44:27.160Z,41.6994
2023-03-29T02:45:28.618Z,41.6802
2023-03-29T02:46:30.055Z,41.6469
2023-03-29T02:47:31.506Z,41.6859
2023-03-29T02:48:32.945Z,41.7011
2023-03-29T02:49:34.309Z,41.7131
2023-03-29T02:50:35.733Z,41.6935
2023-03-29T02:51:37.160Z,41.6742
2023-03-29T02:52:38.590Z,41.6748
2023-03-29T02:53:40.052Z,41.6417
2023-03-29T02:54:41.437Z,41.6337
2023-03-29T02:55:42.964Z,41.6310
2023-03-29T02:56:44.334Z,41.6374
2023-03-29T02:57:45.755Z,41.6638
2023-03-29T02:58:47.183Z,41.6691
2023-03-29T02:59:48.604Z,41.6875
2023-03-29T03:00:50.005Z,41.6977
2023-03-29T03:01:51.512Z,41.7362
2023-03-29T03:02:52.965Z,41.7175
2023-03-29T03:03:54.354Z,41.7077
2023-03-29T03:04:55.757Z,41.7394
2023-03-29T03:05:57.161Z,41.7602
2023-03-29T03:06:58.576Z,41.7507
2023-03-29T03:08:00.013Z,41.7621
2023-03-29T03:09:02.022Z,41.7098
2023-03-29T03:10:02.887Z,41.7541
2023-03-29T03:11:04.507Z,41.8134
2023-03-29T03:12:05.734Z,41.8095
2023-03-29T03:13:07.168Z,41.8250
2023-03-29T03:14:08.606Z,41.7976
2023-03-29T03:15:10.024Z,41.8255
2023-03-29T03:16:11.456Z,41.8081
2023-03-29T03:17:12.859Z,41.7768
2023-03-29T03:18:14.294Z,41.7427
2023-03-29T03:19:15.740Z,41.7258
2023-03-29T03:20:17.147Z,41.7163
2023-03-29T03:21:18.589Z,41.7628
2023-03-29T03:22:20.006Z,41.7796
2023-03-29T03:23:21.489Z,41.7612
2023-03-29T03:24:22.860Z,41.7690
2023-03-29T03:25:24.259Z,41.7685
2023-03-29T03:26:25.692Z,41.7895
2023-03-29T03:27:27.147Z,41.7789
2023-03-29T03:28:28.653Z,41.7793
2023-03-29T03:29:30.006Z,41.7880
2023-03-29T03:30:31.464Z,41.8050
2023-03-29T03:31:32.928Z,41.8749
2023-03-29T03:32:34.327Z,41.9225
2023-03-29T03:33:35.726Z,41.9160
2023-03-29T03:34:37.148Z,41.9129
2023-03-29T03:35:38.589Z,41.9264
2023-03-29T03:36:39.984Z,42.0228
2023-03-29T03:37:41.408Z,42.0920
2023-03-29T03:38:42.869Z,42.2698
2023-03-29T03:39:44.274Z,42.3105
2023-03-29T03:40:45.702Z,42.4533
2023-03-29T03:41:47.155Z,42.4659
2023-03-29T03:42:48.541Z,42.5228
2023-03-29T03:43:49.970Z,42.5988
2023-03-29T03:44:51.427Z,42.5684
2023-03-29T03:45:52.927Z,42.6048
2023-03-29T03:46:54.251Z,42.6261
2023-03-29T03:47:55.675Z,42.6940
2023-03-29T03:48:57.161Z,42.6947
2023-03-29T03:49:58.534Z,42.6723
2023-03-29T03:51:00.052Z,42.6498
2023-03-29T03:52:01.389Z,42.6573
2023-03-29T03:53:02.808Z,42.7121
2023-03-29T03:54:04.292Z,42.7447
2023-03-29T03:55:05.691Z,42.8443
2023-03-29T03:56:07.090Z,42.8288
2023-03-29T03:57:08.528Z,42.7856
2023-03-29T03:58:09.962Z,42.6730
2023-03-29T03:59:11.400Z,42.7558
2023-03-29T04:00:12.804Z,42.7587
2023-03-29T04:01:14.237Z,42.7706
2023-03-29T04:02:15.735Z,42.7618
2023-03-29T04:03:17.263Z,42.6844
2023-03-29T04:04:18.552Z,42.6940
2023-03-29T04:05:20.024Z,42.7253
2023-03-29T04:06:21.363Z,42.6952
2023-03-29T04:07:22.820Z,42.7461
2023-03-29T04:08:24.233Z,42.8412
2023-03-29T04:09:25.696Z,42.7678
2023-03-29T04:10:27.100Z,42.8001
2023-03-29T04:11:28.538Z,42.6999
2023-03-29T04:12:29.981Z,42.6173
2023-03-29T04:13:31.384Z,42.5696
2023-03-29T04:14:32.808Z,42.5745
2023-03-29T04:15:34.304Z,42.5791
2023-03-29T04:16:35.663Z,42.5818
2023-03-29T04:17:37.201Z,42.6480
2023-03-29T04:18:38.593Z,42.6614
2023-03-29T04:19:39.988Z,42.6545
2023-03-29T04:20:41.376Z,42.6796
2023-03-29T04:21:42.823Z,42.7236
2023-03-29T04:22:44.325Z,42.6769
2023-03-29T04:23:45.678Z,42.7643
2023-03-29T04:24:47.100Z,42.7117
2023-03-29T04:25:48.528Z,42.6793
2023-03-29T04:26:49.958Z,42.6585
2023-03-29T04:27:51.389Z,42.6382
2023-03-29T04:28:52.797Z,42.6391
2023-03-29T04:29:54.267Z,42.6246
2023-03-29T04:30:55.658Z,42.6422
2023-03-29T04:31:57.096Z,42.6180
2023-03-29T04:32:58.606Z,42.6417
2023-03-29T04:34:00.514Z,42.6442
2023-03-29T04:35:01.441Z,42.6487
2023-03-29T04:36:02.837Z,42.6249
2023-03-29T04:37:04.220Z,42.6109
2023-03-29T04:38:05.652Z,42.6189
2023-03-29T04:39:07.104Z,42.6398
2023-03-29T04:40:08.540Z,42.6223
2023-03-29T04:41:10.963Z,42.6008
2023-03-29T04:42:11.459Z,42.6272
2023-03-29T04:43:12.804Z,42.6286
2023-03-29T04:44:14.218Z,42.5748
2023-03-29T04:45:15.722Z,42.5716
2023-03-29T04:46:17.148Z,42.5961
2023-03-29T04:47:18.500Z,42.5844
2023-03-29T04:48:19.937Z,42.5831
2023-03-29T04:49:21.802Z,42.6229
2023-03-29T04:50:22.797Z,42.5937
2023-03-29T04:51:24.237Z,42.5335
2023-03-29T04:52:25.662Z,42.4906
2023-03-29T04:53:27.080Z,42.4955
2023-03-29T04:54:28.536Z,42.4989
2023-03-29T04:55:29.925Z,42.5191
2023-03-29T04:56:31.375Z,42.4762
2023-03-29T04:57:32.793Z,42.4880
2023-03-29T04:58:34.230Z,42.5264
2023-03-29T04:59:35.664Z,42.4319
2023-03-29T05:00:37.090Z,42.4287
2023-03-29T05:01:42.738Z,42.4214
2023-03-29T05:02:39.316Z,41.8673
2023-03-29T05:03:41.365Z,40.1105
2023-03-29T05:04:42.873Z,39.1683
2023-03-29T05:05:44.211Z,37.9719
2023-03-29T05:06:45.632Z,36.5693
2023-03-29T05:07:47.083Z,35.9813
2023-03-29T05:08:48.471Z,34.6968
2023-03-29T05:09:49.924Z,34.7474
2023-03-29T05:10:51.325Z,37.8615
2023-03-29T05:11:52.772Z,40.0037
2023-03-29T05:12:54.461Z,39.2328
2023-03-29T05:13:55.633Z,38.6754
2023-03-29T05:14:57.013Z,38.8809
2023-03-29T05:15:58.490Z,39.2311
2023-03-29T05:16:59.905Z,39.9604
2023-03-29T05:18:01.374Z,40.2418
2023-03-29T05:19:02.755Z,40.0024
2023-03-29T05:20:04.182Z,39.9487
2023-03-29T05:21:05.613Z,40.2051
2023-03-29T05:22:07.044Z,40.3896
2023-03-29T05:23:08.426Z,40.4543
2023-03-29T05:24:09.909Z,40.6184
2023-03-29T05:25:11.318Z,40.2942
2023-03-29T05:26:12.729Z,39.7385
2023-03-29T05:27:14.181Z,40.2618
2023-03-29T05:28:15.589Z,40.4176
2023-03-29T05:29:17.017Z,40.1520
2023-03-29T05:30:18.433Z,38.3085
2023-03-29T05:31:19.919Z,38.1330
2023-03-29T05:32:22.097Z,38.1337
2023-03-29T05:33:22.749Z,37.6156
2023-03-29T05:34:24.155Z,38.0730
2023-03-29T05:35:25.545Z,38.1445
2023-03-29T05:36:26.993Z,38.4504
2023-03-29T05:37:28.404Z,38.5828
2023-03-29T05:38:29.829Z,38.6937
2023-03-29T05:39:31.253Z,38.7475
2023-03-29T05:40:32.725Z,38.7488
2023-03-29T05:41:34.116Z,38.6688
2023-03-29T05:42:35.552Z,38.6708
2023-03-29T05:43:37.000Z,38.6379
2023-03-29T05:44:38.454Z,38.8578
2023-03-29T05:45:39.818Z,39.2722
2023-03-29T05:46:41.305Z,39.1488
2023-03-29T05:47:42.847Z,38.9015
2023-03-29T05:48:44.079Z,38.7989
2023-03-29T05:49:45.639Z,39.3119
2023-03-29T05:50:47.040Z,39.0262
2023-03-29T05:51:48.377Z,38.8144
2023-03-29T05:52:49.783Z,38.9245
2023-03-29T05:53:51.215Z,39.1613
2023-03-29T05:54:52.633Z,38.9634
2023-03-29T05:55:54.106Z,38.6804
2023-03-29T05:56:55.534Z,38.5721
2023-03-29T05:57:56.925Z,38.3213
2023-03-29T05:58:58.363Z,38.2581
2023-03-29T05:59:59.818Z,38.3791
2023-03-29T06:01:01.479Z,38.4783
2023-03-29T06:02:02.737Z,38.6875
2023-03-29T06:03:17.651Z,38.9570
2023-03-29T06:04:05.504Z,39.0709
2023-03-29T06:05:06.996Z,39.1211
2023-03-29T06:06:08.343Z,39.2258
2023-03-29T06:07:09.785Z,39.3252
2023-03-29T06:08:11.210Z,39.4130
2023-03-29T06:09:12.628Z,39.5199
2023-03-29T06:10:14.064Z,39.1661
2023-03-29T06:11:15.468Z,39.3722
2023-03-29T06:12:16.931Z,39.4109
2023-03-29T06:13:18.328Z,39.7163
2023-03-29T06:14:19.755Z,39.8915
2023-03-29T06:15:21.313Z,39.7635
2023-03-29T06:16:22.765Z,39.6974
2023-03-29T06:17:24.219Z,39.5573
2023-03-29T06:18:25.565Z,39.3827
2023-03-29T06:19:26.974Z,39.6127
2023-03-29T06:20:28.400Z,39.3765
2023-03-29T06:21:29.829Z,39.3287
2023-03-29T06:22:31.250Z,39.4830
2023-03-29T06:23:32.666Z,39.5215
2023-03-29T06:24:34.087Z,39.3927
2023-03-29T06:25:35.514Z,39.1285
2023-03-29T06:26:36.962Z,38.8300
2023-03-29T06:27:38.377Z,38.7920
2023-03-29T06:28:39.782Z,38.4762
2023-03-29T06:29:41.249Z,38.8022
2023-03-29T06:30:42.642Z,38.7383
2023-03-29T06:31:44.154Z,38.5502
2023-03-29T06:32:45.554Z,38.2630
2023-03-29T06:33:46.965Z,38.1974
2023-03-29T06:34:48.362Z,38.1990
2023-03-29T06:35:49.907Z,37.9778
2023-03-29T06:36:51.202Z,37.7257
2023-03-29T06:37:52.644Z,37.5873
2023-03-29T06:38:54.082Z,37.5389
2023-03-29T06:39:55.505Z,37.3937
2023-03-29T06:40:56.948Z,37.2294
2023-03-29T06:41:58.351Z,37.0509
2023-03-29T06:42:59.762Z,36.7053
2023-03-29T06:44:01.218Z,35.7439
2023-03-29T06:45:02.666Z,35.5549
2023-03-29T06:46:04.138Z,35.1327
2023-03-29T06:47:05.577Z,35.7153
2023-03-29T06:48:06.972Z,35.8498
2023-03-29T06:49:08.350Z,35.9621
2023-03-29T06:50:09.798Z,35.8367
2023-03-29T06:51:11.201Z,35.9926
2023-03-29T06:52:12.665Z,35.9262
2023-03-29T06:53:14.060Z,35.7756
2023-03-29T06:54:15.469Z,36.1052
2023-03-29T06:55:16.878Z,36.2160
2023-03-29T06:56:18.335Z,36.4081
2023-03-29T06:57:19.848Z,36.6537
2023-03-29T06:58:21.175Z,36.8018
2023-03-29T06:59:22.628Z,36.8787
2023-03-29T07:00:24.038Z,37.2183
2023-03-29T07:01:25.486Z,36.8771
2023-03-29T07:02:26.947Z,37.0221
2023-03-29T07:03:28.319Z,37.1877
2023-03-29T07:04:29.831Z,37.5060
2023-03-29T07:05:31.174Z,37.3118
2023-03-29T07:06:32.605Z,37.3013
2023-03-29T07:07:34.028Z,37.4503
2023-03-29T07:08:35.442Z,37.2570
2023-03-29T07:09:36.874Z,37.0577
2023-03-29T07:10:38.357Z,37.2737
2023-03-29T07:11:39.747Z,37.2805
2023-03-29T07:12:41.146Z,37.3062
2023-03-29T07:13:42.807Z,37.5425
2023-03-29T07:14:46.242Z,37.5420
2023-03-29T07:15:45.425Z,37.6534
2023-03-29T07:16:47.104Z,37.7345
2023-03-29T07:17:48.289Z,38.0160
2023-03-29T07:18:49.701Z,37.9568
2023-03-29T07:19:51.109Z,37.9052
2023-03-29T07:20:52.594Z,37.8642
2023-03-29T07:21:54.014Z,37.7863
2023-03-29T07:22:55.405Z,37.7229
2023-03-29T07:23:56.820Z,38.0468
2023-03-29T07:24:58.244Z,38.0438
2023-03-29T07:25:59.649Z,37.9520
2023-03-29T07:27:04.486Z,37.8932
2023-03-29T07:28:02.499Z,38.1320
2023-03-29T07:29:03.925Z,38.1079
2023-03-29T07:30:05.348Z,38.2003
2023-03-29T07:31:06.814Z,38.3381
2023-03-29T07:32:08.290Z,38.3426
2023-03-29T07:33:09.782Z,38.3785
2023-03-29T07:34:11.134Z,38.5872
2023-03-29T07:35:12.529Z,38.4305
2023-03-29T07:36:13.993Z,38.3448
2023-03-29T07:37:15.371Z,38.2737
2023-03-29T07:38:16.828Z,38.2965
2023-03-29T07:39:18.206Z,38.4438
2023-03-29T07:40:19.639Z,38.3837
2023-03-29T07:41:21.050Z,38.3901
2023-03-29T07:42:22.493Z,38.4500
2023-03-29T07:43:23.902Z,38.4619
2023-03-29T07:44:25.333Z,38.5360
2023-03-29T07:45:28.587Z,38.6224
2023-03-29T07:46:28.225Z,38.6688
2023-03-29T07:47:29.649Z,38.6346
2023-03-29T07:48:31.024Z,38.6197
2023-03-29T07:49:32.464Z,38.6999
2023-03-29T07:50:33.877Z,38.6298
2023-03-29T07:51:35.315Z,38.6375
2023-03-29T07:52:36.735Z,38.7370
2023-03-29T07:53:38.174Z,38.7297
2023-03-29T07:54:39.600Z,38.7705
2023-03-29T07:55:41.001Z,38.7370
2023-03-29T07:56:42.449Z,38.7322
2023-03-29T07:57:43.857Z,38.7188
2023-03-29T07:58:45.297Z,38.7640
2023-03-29T07:59:46.723Z,38.7962
2023-03-29T08:00:48.151Z,38.8467
2023-03-29T08:01:49.567Z,39.0277
2023-03-29T08:02:51.025Z,39.0334
2023-03-29T08:03:52.550Z,38.9763
2023-03-29T08:04:54.032Z,38.7962
2023-03-29T08:05:55.283Z,38.7385
2023-03-29T08:06:56.695Z,38.7441
2023-03-29T08:07:58.125Z,38.7587
2023-03-29T08:08:59.554Z,38.8359
2023-03-29T08:10:01.001Z,38.9774
2023-03-29T08:11:02.585Z,39.0696
2023-03-29T08:12:03.822Z,37.0448
2023-03-29T08:13:05.257Z,36.2180
2023-03-29T08:14:06.710Z,37.3465
2023-03-29T08:15:08.194Z,36.3479
2023-03-29T08:16:09.542Z,35.3737
2023-03-29T08:17:11.050Z,34.8269
2023-03-29T08:18:12.470Z,35.0314
2023-03-29T08:19:13.810Z,36.8212
2023-03-29T08:20:15.249Z,36.7543
2023-03-29T08:21:16.665Z,36.7092
2023-03-29T08:22:18.102Z,36.7832
2023-03-29T08:23:19.538Z,36.8333
2023-03-29T08:24:21.174Z,36.7672
2023-03-29T08:25:22.383Z,36.8345
2023-03-29T08:26:23.803Z,36.9033
2023-03-29T08:27:25.214Z,36.8727
2023-03-29T08:28:26.684Z,36.6092
2023-03-29T08:29:28.082Z,36.2656
2023-03-29T08:30:29.519Z,35.8883
2023-03-29T08:31:31.004Z,35.4099
2023-03-29T08:32:32.383Z,33.4349
2023-03-29T08:33:33.809Z,33.0423
2023-03-29T08:34:35.205Z,32.6617
2023-03-29T08:35:36.662Z,33.2757
2023-03-29T08:36:38.060Z,34.7565
2023-03-29T08:37:39.491Z,33.7965
2023-03-29T08:38:40.986Z,34.4065
2023-03-29T08:39:42.359Z,34.5686
2023-03-29T08:40:43.761Z,34.7552
2023-03-29T08:41:45.171Z,34.8005
2023-03-29T08:42:46.596Z,34.6737
2023-03-29T08:43:48.050Z,34.7348
2023-03-29T08:44:49.470Z,34.9128
2023-03-29T08:45:51.236Z,35.0840
2023-03-29T08:46:52.358Z,35.2318
2023-03-29T08:47:53.818Z,35.2566
2023-03-29T08:48:55.197Z,35.2445
2023-03-29T08:49:56.597Z,35.1927
2023-03-29T08:50:58.022Z,35.1823
2023-03-29T08:51:59.451Z,35.2705
2023-03-29T08:53:00.866Z,35.2572
2023-03-29T08:54:02.326Z,35.3297
2023-03-29T08:55:03.732Z,35.3801
2023-03-29T08:56:05.201Z,35.4782
2023-03-29T08:57:06.589Z,35.4921
2023-03-29T08:58:08.004Z,35.4442
2023-03-29T08:59:09.483Z,35.5542
2023-03-29T09:00:10.867Z,35.5418
2023-03-29T09:01:12.344Z,35.5572
2023-03-29T09:02:13.749Z,35.5568
2023-03-29T09:03:15.213Z,35.5780
2023-03-29T09:04:16.605Z,35.5799
2023-03-29T09:05:18.049Z,35.5957
2023-03-29T09:06:19.454Z,35.6163
2023-03-29T09:07:20.889Z,35.6166
2023-03-29T09:08:22.302Z,35.6848
2023-03-29T09:09:23.750Z,35.6614
2023-03-29T09:10:25.183Z,35.7014
2023-03-29T09:11:26.627Z,35.7116
2023-03-29T09:12:28.013Z,35.6989
2023-03-29T09:13:29.535Z,35.6943
2023-03-29T09:14:30.873Z,35.7341
2023-03-29T09:15:32.391Z,35.7465
2023-03-29T09:16:33.764Z,35.7830
2023-03-29T09:17:35.186Z,35.7894
2023-03-29T09:18:36.632Z,35.8351
2023-03-29T09:19:38.030Z,35.8752
2023-03-29T09:20:39.516Z,35.8294
2023-03-29T09:21:40.872Z,35.8516
2023-03-29T09:22:42.313Z,35.9451
2023-03-29T09:23:43.744Z,35.9166
2023-03-29T09:24:45.177Z,35.8921
2023-03-29T09:25:53.554Z,35.9487
2023-03-29T09:26:48.041Z,35.9654
2023-03-29T09:27:49.461Z,36.0441
2023-03-29T09:28:50.896Z,36.0621
2023-03-29T09:29:52.299Z,36.0366
2023-03-29T09:30:53.750Z,36.0704
2023-03-29T09:31:55.153Z,36.1373
2023-03-29T09:32:56.652Z,36.1536
2023-03-29T09:33:57.994Z,36.2406
2023-03-29T09:34:59.444Z,36.1570
2023-03-29T09:36:00.899Z,36.1376
2023-03-29T09:37:02.272Z,36.3204
2023-03-29T09:38:03.702Z,36.1701
2023-03-29T09:39:05.157Z,36.2353
2023-03-29T09:40:06.568Z,36.3057
2023-03-29T09:41:07.997Z,36.1979
2023-03-29T09:42:09.494Z,35.9121
2023-03-29T09:43:10.853Z,35.4297
2023-03-29T09:44:20.773Z,35.5963
2023-03-29T09:45:13.718Z,35.7938
2023-03-29T09:46:15.216Z,35.8269
2023-03-29T09:47:16.547Z,35.8222
2023-03-29T09:48:17.957Z,35.8194
2023-03-29T09:49:19.409Z,35.8866
2023-03-29T09:50:30.960Z,36.0234
2023-03-29T09:51:22.342Z,36.0675
2023-03-29T09:52:23.690Z,36.1447
2023-03-29T09:53:25.126Z,36.0152
2023-03-29T09:54:26.534Z,35.9197
2023-03-29T09:55:27.967Z,36.1821
2023-03-29T09:56:29.400Z,36.2553
2023-03-29T09:57:30.943Z,36.1735
2023-03-29T09:58:32.239Z,36.1162
2023-03-29T09:59:33.684Z,36.1364
2023-03-29T10:00:35.105Z,36.2947
2023-03-29T10:01:36.553Z,36.3852
2023-03-29T10:02:38.036Z,36.6927
2023-03-29T10:03:39.404Z,36.8210
2023-03-29T10:04:40.881Z,36.7709
2023-03-29T10:05:42.245Z,36.8599
2023-03-29T10:06:43.676Z,37.1864
2023-03-29T10:07:45.149Z,37.1134
2023-03-29T10:08:46.522Z,37.0825
2023-03-29T10:09:47.980Z,37.0550
2023-03-29T10:10:49.392Z,37.1947
2023-03-29T10:11:50.875Z,37.3409
2023-03-29T10:12:52.256Z,37.4353
2023-03-29T10:13:53.700Z,37.5062
2023-03-29T10:14:55.193Z,37.5361
2023-03-29T10:15:56.549Z,37.5281
2023-03-29T10:16:58.046Z,37.5970
2023-03-29T10:17:59.607Z,37.6557
2023-03-29T10:19:00.932Z,37.6542
2023-03-29T10:20:04.217Z,37.7197
2023-03-29T10:21:04.146Z,37.7662
2023-03-29T10:22:05.223Z,37.7696
2023-03-29T10:23:06.648Z,37.8213
2023-03-29T10:24:08.071Z,37.8374
2023-03-29T10:25:09.491Z,37.8651
2023-03-29T10:26:10.910Z,37.8598
2023-03-29T10:27:12.325Z,37.9675
2023-03-29T10:28:13.764Z,37.9054
2023-03-29T10:29:15.169Z,37.8541
2023-03-29T10:30:16.626Z,37.9141
2023-03-29T10:31:18.075Z,37.9414
2023-03-29T10:32:19.483Z,37.9687
2023-03-29T10:33:20.930Z,38.0375
2023-03-29T10:34:22.319Z,38.1664
2023-03-29T10:35:23.742Z,38.0999
2023-03-29T10:36:25.173Z,37.9935
2023-03-29T10:37:26.613Z,37.9645
2023-03-29T10:38:28.037Z,37.9947
2023-03-29T10:39:29.446Z,38.0704
2023-03-29T10:40:30.947Z,38.0539
2023-03-29T10:41:32.305Z,38.1111
2023-03-29T10:42:33.754Z,38.1307
2023-03-29T10:43:35.170Z,38.2406
2023-03-29T10:44:36.638Z,38.3325
2023-03-29T10:45:38.043Z,38.3367
2023-03-29T10:46:39.496Z,38.3523
2023-03-29T10:47:40.930Z,38.3704
2023-03-29T10:48:42.309Z,38.4753
2023-03-29T10:49:43.741Z,38.5439
2023-03-29T10:50:45.165Z,38.5899
2023-03-29T10:51:46.593Z,38.6853
2023-03-29T10:52:48.022Z,38.6398
2023-03-29T10:53:49.434Z,38.7595
2023-03-29T10:54:50.891Z,38.8049
2023-03-29T10:55:52.309Z,38.8083
2023-03-29T10:56:53.739Z,38.8615
2023-03-29T10:57:55.182Z,38.9195
2023-03-29T10:58:56.625Z,39.0118
2023-03-29T10:59:58.042Z,39.0549
2023-03-29T11:00:59.491Z,39.0526
2023-03-29T11:02:00.910Z,39.0663
2023-03-29T11:03:02.377Z,39.0963
2023-03-29T11:04:03.873Z,39.0935
2023-03-29T11:05:05.211Z,39.1121
2023-03-29T11:06:06.597Z,39.1269
2023-03-29T11:07:08.062Z,39.1819
2023-03-29T11:08:09.486Z,39.2248
2023-03-29T11:09:10.886Z,39.2352
2023-03-29T11:10:12.369Z,39.2608
2023-03-29T11:11:13.739Z,39.2282
2023-03-29T11:12:16.423Z,39.2454
2023-03-29T11:13:16.588Z,39.2395
2023-03-29T11:14:18.032Z,39.2750
2023-03-29T11:15:19.445Z,39.2970
2023-03-29T11:16:20.998Z,39.2652
2023-03-29T11:17:22.390Z,39.2708
2023-03-29T11:18:23.739Z,39.2396
2023-03-29T11:19:25.177Z,39.2190
2023-03-29T11:20:26.573Z,39.1725
2023-03-29T11:21:28.069Z,39.0569
2023-03-29T11:22:29.431Z,38.8871
2023-03-29T11:23:30.866Z,38.8552
2023-03-29T11:24:32.286Z,38.8111
2023-03-29T11:25:33.709Z,38.8421
2023-03-29T11:26:35.205Z,38.7742
2023-03-29T11:27:36.582Z,38.8145
2023-03-29T11:28:37.988Z,38.9200
2023-03-29T11:29:39.432Z,38.8297
2023-03-29T11:30:40.845Z,38.8229
2023-03-29T11:31:42.344Z,38.8686
2023-03-29T11:32:43.725Z,38.9008
2023-03-29T11:33:45.157Z,39.0820
2023-03-29T11:34:46.530Z,38.9647
2023-03-29T11:35:48.131Z,39.0594
2023-03-29T11:36:49.389Z,39.0854
2023-03-29T11:37:50.825Z,39.0418
2023-03-29T11:38:52.242Z,39.0570
2023-03-29T11:39:53.690Z,39.1562
2023-03-29T11:40:55.094Z,39.2110
2023-03-29T11:41:56.564Z,39.1840
2023-03-29T11:42:57.950Z,39.1570
2023-03-29T11:43:59.375Z,39.2035
2023-03-29T11:45:00.810Z,39.2316
2023-03-29T11:46:02.277Z,39.2365
2023-03-29T11:47:03.741Z,39.2032
2023-03-29T11:48:05.176Z,39.2502
2023-03-29T11:49:06.518Z,39.2840
2023-03-29T11:50:07.945Z,39.1754
2023-03-29T11:51:09.365Z,39.1905
2023-03-29T11:52:10.797Z,39.1246
2023-03-29T11:53:12.241Z,39.0952
2023-03-29T11:54:13.641Z,39.1006
2023-03-29T11:55:15.069Z,39.1077
2023-03-29T11:56:16.491Z,39.1796
2023-03-29T11:57:17.999Z,39.1159
2023-03-29T11:58:19.330Z,39.1458
2023-03-29T11:59:20.747Z,39.1160
2023-03-29T12:00:22.176Z,39.0616
2023-03-29T12:01:23.585Z,39.0256
2023-03-29T12:02:25.221Z,38.9755
2023-03-29T12:03:26.495Z,38.9341
2023-03-29T12:04:27.928Z,38.9551
2023-03-29T12:05:29.296Z,38.9092
2023-03-29T12:06:30.741Z,38.9107
2023-03-29T12:07:32.199Z,38.8861
2023-03-29T12:08:33.590Z,38.8686
2023-03-29T12:09:34.998Z,38.4941
2023-03-29T12:10:36.449Z,36.9251
2023-03-29T12:11:37.857Z,35.9236
2023-03-29T12:12:39.310Z,36.0147
2023-03-29T12:13:40.725Z,35.9029
2023-03-29T12:14:42.169Z,35.8807
2023-03-29T12:15:43.604Z,36.1441
2023-03-29T12:16:45.066Z,36.2793
2023-03-29T12:17:46.497Z,36.2269
2023-03-29T12:18:47.882Z,36.3809
2023-03-29T12:19:49.284Z,36.6691
2023-03-29T12:20:50.730Z,36.7970
2023-03-29T12:21:52.137Z,36.7833
2023-03-29T12:22:53.606Z,36.7296